• Join FlightAware (Why Join?)
  • Login
  • US Flag 
11:01AM EST


 

Airport Tracker/Info


-or-


 

Live Flight TrackerFlight Track Log ✈ N16490 ✈ 25-Nov-2013 ✈ 2G9 - 3OH0

Flight Track Log - Related Links

Times and Time Zones

All times are in EST time to prevent confusion due to time zone crossing. See the N16490 flight status page for this flight to view local times or setup timezone preferences in your user account.

Time Position Orientation Groundspeed Altitude Reporting Facility
EST Latitude Longitude Course Direction KTS MPH feet Rate Location/Type
12:30PM 40.0461 -79.2361 280° West 94 108 4,400  Level Cleveland Center
12:31PM 40.0497 -79.2617 280° West 94 108 4,500  Climbing Cleveland Center
12:31PM 40.0475 -79.2692 249° West 93 107 4,400  Descending Cleveland Center
12:32PM 40.0508 -79.3025 277° West 88 101 4,500 60 Climbing Cleveland Center
12:33PM 40.0539 -79.3325 278° West 89 102 4,600  Climbing Cleveland Center
12:33PM 40.0519 -79.3381 245° Southwest 90 104 4,500  Descending Cleveland Center
12:34PM 40.0536 -79.3653 275° West 90 104 4,600  Climbing Cleveland Center
12:34PM 40.0533 -79.3711 266° West 91 105 4,500 -120 Descending Cleveland Center
12:35PM 40.0531 -79.4011 269° West 90 104 4,500 60 Level Cleveland Center
12:35PM 40.0550 -79.3983 48° Northeast 91 105 4,600 -120 Climbing Cleveland Center
12:36PM 40.0544 -79.4339 269° West 95 109 4,400 -120 Descending Cleveland Center
12:36PM 40.0553 -79.4331 37° Northeast 94 108 4,500  Climbing Cleveland Center
12:37PM 40.0547 -79.4778 269° West 100 115 4,400 -60 Descending Cleveland Center
12:38PM 40.0547 -79.5022 270° West 100 115 4,400 60 Level Cleveland Center
12:38PM 40.0569 -79.5106 289° West 97 112 4,500 120 Climbing Cleveland Center
12:39PM 40.0572 -79.5428 271° West 91 105 4,600  Climbing Cleveland Center
12:40PM 40.0589 -79.5722 274° West 85 98 4,600  Level Cleveland Center
12:41PM 40.0589 -79.6028 270° West 84 97 4,600  Level Cleveland Center
12:42PM 40.0581 -79.6328 268° West 83 96 4,700  Climbing Cleveland Center
12:43PM 40.0561 -79.6639 265° West 85 98 4,700 -60 Level Cleveland Center
12:44PM 40.0547 -79.6953 267° West 86 99 4,600 -60 Descending Cleveland Center
12:45PM 40.0517 -79.7331 264° West 88 101 4,600  Level Cleveland Center
12:46PM 40.0503 -79.7644 267° West 88 101 4,700  Climbing Cleveland Center
12:47PM 40.0492 -79.7969 267° West 89 102 4,600 -120 Descending Cleveland Center
12:48PM 40.0481 -79.8294 267° West 89 102 4,500 -60 Descending Cleveland Center
12:49PM 40.0464 -79.8625 266° West 91 105 4,500  Level Cleveland Center
12:50PM 40.0453 -79.8967 268° West 93 107 4,600  Climbing Cleveland Center
12:51PM 40.0433 -79.9356 266° West 91 105 4,500 -60 Descending Cleveland Center
12:52PM 40.0431 -79.9694 269° West 92 106 4,500  Level Cleveland Center
12:53PM 40.0433 -80.0022 271° West 92 106 4,500  Level Cleveland Center
12:54PM 40.0425 -80.0356 268° West 92 106 4,500  Level Cleveland Center
12:56PM 40.0422 -80.0683 269° West 91 105 4,500  Level Cleveland Center
12:57PM 40.0431 -80.1011 272° West 91 105 4,500  Level Cleveland Center
12:58PM 40.0433 -80.1400 271° West 90 104 4,600  Climbing Cleveland Center
12:59PM 40.0428 -80.1725 269° West 90 104 4,600  Level Cleveland Center
01:00PM 40.0433 -80.2058 271° West 90 104 4,600  Level Cleveland Center
01:01PM 40.0436 -80.2386 271° West 91 105 4,600  Level Cleveland Center
01:02PM 40.0447 -80.2711 273° West 90 104 4,600  Level Cleveland Center
01:03PM 40.0453 -80.3042 271° West 90 104 4,600  Level Cleveland Center
01:04PM 40.0464 -80.3378 272° West 91 105 4,600  Level Cleveland Center
01:05PM 40.0458 -80.3778 269° West 92 106 4,600  Level Cleveland Center
01:06PM 40.0461 -80.4111 271° West 92 106 4,600 -60 Level Cleveland Center
01:07PM 40.0453 -80.4456 268° West 93 107 4,500  Descending Cleveland Center
01:08PM 40.0453 -80.4792 270° West 94 108 4,600  Climbing Cleveland Center
01:09PM 40.0442 -80.5131 268° West 93 107 4,600 -60 Level Cleveland Center
01:10PM 40.0436 -80.5467 269° West 93 107 4,500 -120 Descending Cleveland Center
01:11PM 40.0431 -80.5792 269° West 92 106 4,400  Descending Cleveland Center
01:12PM 40.0422 -80.6192 268° West 92 106 4,500 60 Climbing Cleveland Center
01:13PM 40.0419 -80.6511 269° West 90 104 4,600  Climbing Cleveland Center
01:14PM 40.0419 -80.6822 270° West 88 101 4,500  Descending Cleveland Center
01:15PM 40.0417 -80.7131 269° West 87 100 4,600  Climbing Cleveland Center
01:16PM 40.0417 -80.7461 270° West 88 101 4,600  Level Cleveland Center
01:17PM 40.0417 -80.7772 270° West 88 101 4,600 -60 Level Cleveland Center
01:18PM 40.0425 -80.8094 272° West 87 100 4,500 -60 Descending Cleveland Center
01:19PM 40.0425 -80.8431 270° West 90 104 4,500  Level Cleveland Center
01:20PM 40.0422 -80.8822 269° West 90 104 4,500  Level Cleveland Center
01:21PM 40.0417 -80.9139 269° West 89 102 4,500  Level Cleveland Center
01:22PM 40.0408 -80.9450 268° West 88 101 4,500  Level Cleveland Center
01:23PM 40.0411 -80.9767 271° West 87 100 4,500  Level Cleveland Center
01:24PM 40.0422 -81.0083 273° West 87 100 4,500  Level Cleveland Center
01:25PM 40.0425 -81.0397 271° West 87 100 4,500  Level Cleveland Center
01:26PM 40.0419 -81.0711 269° West 87 100 4,500  Level Cleveland Center
01:27PM 40.0419 -81.1036 270° West 89 102 4,600  Climbing Cleveland Center
01:28PM 40.0436 -81.1406 273° West 87 100 4,600  Level Cleveland Center
01:29PM 40.0442 -81.1708 271° West 85 98 4,600  Level Cleveland Center
01:31PM 40.0444 -81.2042 271° West 88 101 4,600  Level Cleveland Center
01:32PM 40.0442 -81.2336 269° West 86 99 4,600 -60 Level Cleveland Center
01:33PM 40.0425 -81.2653 266° West 86 99 4,500 -120 Descending Cleveland Center
01:34PM 40.0406 -81.2967 265° West 86 99 4,400 -60 Descending Cleveland Center
01:35PM 40.0400 -81.3278 269° West 86 99 4,400  Level Cleveland Center
01:36PM 40.0392 -81.3631 268° West 84 97 4,500  Climbing Cleveland Center
01:37PM 40.0372 -81.3944 265° West 85 98 4,500 -180 Level Cleveland Center
01:38PM 40.0353 -81.4244 265° West 83 96 4,100 -60 Descending Indianapolis Center
01:39PM 40.0319 -81.4619 263° West 88 101 4,400 120 Climbing Indianapolis Center
01:40PM 40.0317 -81.4897 269° West 82 94 4,400  Level Indianapolis Center
01:41PM 40.0311 -81.5200 269° West 81 93 4,500  Climbing Indianapolis Center
01:42PM 40.0306 -81.5525 269° West 83 96 4,400 -60 Descending Indianapolis Center
01:43PM 40.0294 -81.5864 268° West 87 100 4,400 -60 Level Indianapolis Center
01:44PM 40.0292 -81.6219 269° West 87 100 4,300 -120 Descending Indianapolis Center
01:47PM 40.0245 -81.6771 264° West  Level FlightAware Approximate
01:54PM 40.0040 -81.9156 264° West  Level FlightAware Approximate
01:55PM 40.0010 -81.9497 264° West  Level FlightAware Approximate
01:56PM 39.9980 -81.9838 263° West  Level FlightAware Approximate
01:57PM 39.9950 -82.0178 263° West  Level FlightAware Approximate
01:58PM 39.9920 -82.0519 263° West  Level FlightAware Approximate
01:59PM 39.9890 -82.0859 263° West  Level FlightAware Approximate
02:00PM 39.9860 -82.1200 263° West  Level FlightAware Approximate
02:01PM 39.9832 -82.1556 268° West  Level FlightAware Approximate
02:02PM 39.9825 -82.1899 268° West  Level FlightAware Approximate
02:03PM 39.9818 -82.2241 268° West  Level FlightAware Approximate
02:04PM 39.9811 -82.2584 268° West  Level FlightAware Approximate
02:05PM 39.9803 -82.2926 268° West  Level FlightAware Approximate
02:06PM 39.9796 -82.3269 268° West  Level FlightAware Approximate
02:07PM 39.9788 -82.3612 268° West  Level FlightAware Approximate
02:08PM 39.9780 -82.3954 268° West  Level FlightAware Approximate
02:09PM 39.9773 -82.4297 268° West  Level FlightAware Approximate
02:10PM 39.9765 -82.4640 268° West  Level FlightAware Approximate
02:11PM 39.9757 -82.4982 268° West  Level FlightAware Approximate
02:12PM 39.9749 -82.5325 268° West  Level FlightAware Approximate
02:13PM 39.9740 -82.5667 268° West  Level FlightAware Approximate
02:14PM 39.9732 -82.6010 268° West  Level FlightAware Approximate
02:15PM 39.9724 -82.6352 268° West  Level FlightAware Approximate
02:16PM 39.9715 -82.6695 268° West  Level FlightAware Approximate
02:17PM 39.9707 -82.7038 268° West  Level FlightAware Approximate
02:18PM 39.9698 -82.7380 268° West  Level FlightAware Approximate
02:19PM 39.9689 -82.7723 268° West  Level FlightAware Approximate
02:20PM 39.9680 -82.8065 268° West  Level FlightAware Approximate
02:21PM 39.9671 -82.8408 268° West  Level FlightAware Approximate
02:22PM 39.9662 -82.8750 268° West  Level FlightAware Approximate
02:23PM 39.9653 -82.9093 268° West  Level FlightAware Approximate
02:24PM 39.9644 -82.9435 268° West  Level FlightAware Approximate
02:25PM 39.9634 -82.9778 268° West  Level FlightAware Approximate
02:26PM 39.9625 -83.0120 268° West  Level FlightAware Approximate
02:27PM 39.9615 -83.0463 268° West  Level FlightAware Approximate
02:28PM 39.9605 -83.0805 268° West  Level FlightAware Approximate
02:29PM 39.9596 -83.1147 268° West  Level FlightAware Approximate
02:30PM 39.9586 -83.1490 268° West  Level FlightAware Approximate
02:31PM 39.9576 -83.1832 268° West  Level FlightAware Approximate
02:32PM 39.9566 -83.2175 268° West  Level FlightAware Approximate
02:33PM 39.9556 -83.2517 268° West  Level FlightAware Approximate
02:34PM 39.9545 -83.2859 268° West  Level FlightAware Approximate
02:35PM 39.9535 -83.3202 268° West  Level FlightAware Approximate
02:36PM 39.9524 -83.3544 268° West  Level FlightAware Approximate
02:37PM 39.9514 -83.3887 268° West  Level FlightAware Approximate
02:38PM 39.9503 -83.4229 268° West  Level FlightAware Approximate
02:39PM 39.9488 -83.4571 266° West  Level FlightAware Approximate
02:40PM 39.9470 -83.4913 266° West  Level FlightAware Approximate
02:41PM 39.9453 -83.5255 266° West  Level FlightAware Approximate
02:42PM 39.9435 -83.5596 266° West  Level FlightAware Approximate
02:43PM 39.9417 -83.5938 266° West  Level FlightAware Approximate
02:44PM 39.9399 -83.6280 266° West  Level FlightAware Approximate
02:45PM 39.9380 -83.6622 266° West  Level FlightAware Approximate
02:46PM 39.9362 -83.6963 266° West  Level FlightAware Approximate
02:47PM 39.9344 -83.7305 266° West  Level FlightAware Approximate
02:48PM 39.9322 -83.7646 264° West  Level FlightAware Approximate
02:49PM 39.9296 -83.7987 264° West  Level FlightAware Approximate
02:50PM 39.9270 -83.8328 264° West  Level FlightAware Approximate
02:51PM 39.9244 -83.8669 264° West  Level FlightAware Approximate
02:52PM 39.9218 -83.9010 264° West  Level FlightAware Approximate
02:53PM 39.9191 -83.9350 264° West  Level FlightAware Approximate
02:54PM 39.9167 -83.9691 270° West  Level FlightAware Approximate
02:55PM 39.9167 -84.0000 270° West  Level FlightAware Approximate
02:56PM 39.9309 -84.0135 270° West  Level Estimated
02:57PM 39.9309 -84.0135 270° West  Level Estimated
02:58PM 39.9309 -84.0135 270° West  Level Estimated
02:59PM 39.9309 -84.0135 270° West  Level Estimated
03:00PM 39.9309 -84.0135 270° West  Level Estimated
03:01PM 39.9309 -84.0135 270° West  Level Estimated
03:02PM 39.9309 -84.0135 270° West  Level Estimated
03:03PM 39.9309 -84.0135 270° West  Level Estimated
03:04PM 39.9309 -84.0135 270° West  Level Estimated
03:05PM 39.9309 -84.0135 270° West  Level Estimated
03:06PM 39.9309 -84.0135 270° West  Level Estimated
03:07PM 39.9309 -84.0135 270° West  Level Estimated
03:08PM 39.9309 -84.0135 270° West  Level Estimated
03:09PM 39.9309 -84.0135 270° West  Level Estimated
03:10PM 39.9309 -84.0135 270° West  Level Estimated